Time;durP1;ratioP1;P1;durP2;ratioP2;P2;SDS_P1;SDS_P2;PMS_P1;PMS_P2;Temp;Humidity;BMP_temperature;BMP_pressure;BME280_temperature;BME280_humidity;BME280_pressure;Samples;Min_cycle;Max_cycle;Signal;HPM_P1;HPM_P2
2024/03/07 00:00:14;;;;;;;0.63;0.60;;;;;;;6.99;69.00;102722.59;5060169;28;20064;-78
2024/03/07 00:02:42;;;;;;;0.30;0.30;;;;;;;6.95;69.15;102732.16;5058713;28;20028;-79
2024/03/07 00:05:09;;;;;;;0.98;0.98;;;;;;;6.94;69.39;102734.72;5045611;28;20516;-78
2024/03/07 00:07:35;;;;;;;1.30;1.20;;;;;;;6.92;68.63;102731.19;5061884;28;20032;-77
2024/03/07 00:10:03;;;;;;;0.20;0.20;;;;;;;6.92;69.38;102728.56;5060469;28;20511;-77
2024/03/07 00:12:29;;;;;;;0.10;0.10;;;;;;;6.94;69.21;102732.09;5061539;28;20025;-78
2024/03/07 00:14:56;;;;;;;0.10;0.10;;;;;;;6.93;69.66;102735.59;5062158;28;20036;-78
2024/03/07 00:17:22;;;;;;;0.10;0.10;;;;;;;6.95;69.59;102733.88;5060705;28;20445;-78
2024/03/07 00:19:49;;;;;;;0.10;0.10;;;;;;;6.95;69.13;102742.69;5063232;28;20499;-78
2024/03/07 00:22:16;;;;;;;0.30;0.30;;;;;;;6.95;68.87;102736.50;5039822;28;20040;-77
2024/03/07 00:24:42;;;;;;;0.10;0.10;;;;;;;6.95;69.33;102736.50;5063764;28;20028;-79
2024/03/07 00:27:09;;;;;;;0.20;0.20;;;;;;;6.95;69.16;102733.88;5064322;28;20025;-79
2024/03/07 00:29:37;;;;;;;0.10;0.10;;;;;;;6.96;69.42;102735.66;5065240;28;20029;-79
2024/03/07 00:32:04;;;;;;;0.10;0.10;;;;;;;6.96;69.86;102735.66;5063246;28;20051;-78
2024/03/07 00:34:30;;;;;;;0.20;0.20;;;;;;;6.96;69.25;102739.19;5065846;28;20021;-78
2024/03/07 00:36:58;;;;;;;0.85;0.85;;;;;;;6.94;69.49;102737.38;5063768;28;20124;-79
2024/03/07 00:39:26;;;;;;;0.30;0.25;;;;;;;6.92;69.63;102739.97;5062897;28;20508;-78
2024/03/07 00:41:52;;;;;;;0.73;0.73;;;;;;;6.91;69.82;102738.19;5062718;28;20029;-78
2024/03/07 00:44:18;;;;;;;0.20;0.20;;;;;;;6.89;70.02;102745.19;5062324;28;20124;-79
2024/03/07 00:46:45;;;;;;;0.20;0.20;;;;;;;6.87;70.17;102740.72;5060407;28;20035;-79
2024/03/07 00:49:12;;;;;;;0.10;0.10;;;;;;;6.84;69.78;102731.00;5059557;28;20041;-79
2024/03/07 00:51:39;;;;;;;1.20;1.13;;;;;;;6.80;69.95;102730.03;5059275;28;20040;-78
2024/03/07 00:54:06;;;;;;;0.10;0.10;;;;;;;6.75;69.46;102733.38;5060896;28;20055;-78
2024/03/07 00:56:32;;;;;;;0.65;0.65;;;;;;;6.74;69.73;102731.59;5052513;28;20025;-77
2024/03/07 00:58:58;;;;;;;0.10;0.10;;;;;;;6.72;69.66;102734.19;5053988;28;20029;-77
2024/03/07 01:01:24;;;;;;;0.10;0.10;;;;;;;6.71;69.71;102732.41;5054485;28;20029;-77
2024/03/07 01:03:51;;;;;;;1.17;1.13;;;;;;;6.72;69.67;102730.66;5056778;28;20029;-76
2024/03/07 01:06:17;;;;;;;0.10;0.10;;;;;;;6.67;70.26;102722.63;5053165;28;20515;-77
2024/03/07 01:08:43;;;;;;;0.10;0.10;;;;;;;6.66;70.12;102723.47;5068372;28;20060;-77
2024/03/07 01:11:11;;;;;;;0.10;0.10;;;;;;;6.67;69.92;102720.00;5065217;28;20070;-78
2024/03/07 01:13:38;;;;;;;1.45;1.45;;;;;;;6.67;70.25;102713.81;5055645;28;20106;-78
2024/03/07 01:16:06;;;;;;;0.73;0.73;;;;;;;6.64;70.41;102712.91;5053546;28;20032;-76
2024/03/07 01:18:33;;;;;;;0.13;0.13;;;;;;;6.63;70.04;102721.66;5053136;28;20033;-76
2024/03/07 01:21:00;;;;;;;0.10;0.10;;;;;;;6.63;69.70;102723.41;5060613;28;20032;-77
2024/03/07 01:23:28;;;;;;;0.30;0.30;;;;;;;6.62;70.12;102722.50;5063760;28;20027;-77
2024/03/07 01:25:56;;;;;;;0.10;0.10;;;;;;;6.62;70.05;102719.00;5061248;28;20044;-78
2024/03/07 01:28:23;;;;;;;3.40;1.33;;;;;;;6.60;70.19;102715.41;5061869;28;20021;-78
2024/03/07 01:30:51;;;;;;;0.20;0.20;;;;;;;6.60;70.18;102715.41;5060854;28;20500;-77
2024/03/07 01:33:17;;;;;;;0.35;0.35;;;;;;;6.58;70.42;102717.09;5064395;28;20060;-78
2024/03/07 01:35:43;;;;;;;0.20;0.20;;;;;;;6.58;70.34;102711.84;5063497;28;20029;-77
2024/03/07 01:38:10;;;;;;;0.15;0.15;;;;;;;6.57;70.39;102710.09;5063004;28;20033;-78
2024/03/07 01:40:37;;;;;;;0.90;0.90;;;;;;;6.54;70.47;102710.91;5056303;28;20029;-77
2024/03/07 01:43:05;;;;;;;0.10;0.10;;;;;;;6.51;70.38;102709.91;5055417;28;20039;-77
2024/03/07 01:45:32;;;;;;;0.30;0.30;;;;;;;6.48;70.39;102700.19;5053538;28;20120;-76
2024/03/07 01:47:58;;;;;;;0.10;0.10;;;;;;;6.49;69.84;102709.84;5055025;28;20128;-76
2024/03/07 01:50:25;;;;;;;0.20;0.20;;;;;;;6.48;70.16;102714.25;5056157;28;20047;-75
2024/03/07 01:52:51;;;;;;;0.10;0.10;;;;;;;6.44;70.50;102707.13;5055147;28;20036;-77
2024/03/07 01:55:18;;;;;;;0.20;0.20;;;;;;;6.43;70.48;102714.94;5053995;28;20041;-77
2024/03/07 01:57:45;;;;;;;0.40;0.40;;;;;;;6.43;70.56;102712.31;5055997;28;20036;-78
2024/03/07 02:00:12;;;;;;;0.20;0.20;;;;;;;6.41;70.20;102706.13;5059267;28;20041;-77
2024/03/07 02:02:39;;;;;;;0.10;0.10;;;;;;;6.38;70.64;102709.59;5056751;28;20116;-77
2024/03/07 02:05:06;;;;;;;0.30;0.30;;;;;;;6.36;70.49;102706.00;5054095;28;20112;-78
2024/03/07 02:07:33;;;;;;;0.10;0.10;;;;;;;6.37;70.46;102706.88;5049671;28;20496;-77
2024/03/07 02:10:02;;;;;;;0.17;0.17;;;;;;;6.37;70.58;102702.53;5055443;28;20033;-77
2024/03/07 02:12:29;;;;;;;0.40;0.40;;;;;;;6.35;70.38;102706.84;5057487;28;20041;-77
2024/03/07 02:14:57;;;;;;;0.10;0.10;;;;;;;6.34;70.73;102702.44;5059732;28;20025;-77
2024/03/07 02:17:24;;;;;;;0.32;0.32;;;;;;;6.32;70.93;102704.16;5057033;28;20033;-78
2024/03/07 02:19:50;;;;;;;7.97;1.85;;;;;;;6.30;70.64;102692.66;5059740;28;20500;-76
2024/03/07 02:22:17;;;;;;;0.10;0.10;;;;;;;6.29;70.85;102698.78;5058356;28;20032;-78
2024/03/07 02:24:45;;;;;;;0.20;0.20;;;;;;;6.30;70.93;102695.31;5058944;28;20037;-78
2024/03/07 02:27:14;;;;;;;0.28;0.28;;;;;;;6.31;70.73;102697.09;5057601;28;20060;-78
2024/03/07 02:29:41;;;;;;;0.10;0.10;;;;;;;6.30;70.66;102692.66;5060754;28;20025;-78
2024/03/07 02:32:08;;;;;;;1.25;1.15;;;;;;;6.30;70.83;102692.66;5058877;28;20025;-76
2024/03/07 02:34:34;;;;;;;0.98;0.98;;;;;;;6.28;70.52;102689.09;5059256;28;20084;-77
2024/03/07 02:37:00;;;;;;;0.10;0.10;;;;;;;6.26;70.91;102680.28;5058706;28;20032;-78
2024/03/07 02:39:27;;;;;;;0.25;0.25;;;;;;;6.25;70.83;102686.38;5059763;28;20021;-78
2024/03/07 02:41:53;;;;;;;0.10;0.10;;;;;;;6.23;70.58;102688.09;5060066;28;20075;-78
2024/03/07 02:44:19;;;;;;;0.10;0.10;;;;;;;6.20;70.63;102683.63;5060813;28;20028;-78
2024/03/07 02:46:47;;;;;;;3.75;2.92;;;;;;;6.22;70.49;102688.94;5059711;28;20025;-77
2024/03/07 02:49:15;;;;;;;0.10;0.10;;;;;;;6.20;70.80;102675.72;5054976;28;20025;-78
2024/03/07 02:51:42;;;;;;;0.10;0.10;;;;;;;6.20;70.93;102674.84;5058310;28;20408;-79
2024/03/07 02:54:09;;;;;;;0.20;0.20;;;;;;;6.19;70.85;102680.97;5059248;28;20029;-79
2024/03/07 02:56:35;;;;;;;0.20;0.20;;;;;;;6.17;70.67;102686.19;5060980;28;20033;-79
2024/03/07 02:59:01;;;;;;;0.10;0.10;;;;;;;6.17;70.95;102682.66;5059792;28;20084;-79
2024/03/07 03:01:28;;;;;;;0.95;0.95;;;;;;;6.13;70.89;102674.69;5059773;28;20125;-78
2024/03/07 03:03:54;;;;;;;0.13;0.13;;;;;;;6.10;70.92;102677.22;5059844;28;20123;-78
2024/03/07 03:06:21;;;;;;;0.52;0.52;;;;;;;6.08;70.76;102676.28;5062033;28;20033;-79
2024/03/07 03:08:48;;;;;;;0.10;0.10;;;;;;;6.06;70.84;102675.34;5062070;28;20069;-78
2024/03/07 03:11:14;;;;;;;0.10;0.10;;;;;;;6.06;70.75;102669.22;5053704;28;20391;-78
2024/03/07 03:13:42;;;;;;;0.80;0.80;;;;;;;6.04;71.03;102666.50;5052252;28;20029;-77
2024/03/07 03:16:09;;;;;;;0.22;0.22;;;;;;;6.02;71.00;102668.22;5052349;28;20064;-78
2024/03/07 03:18:36;;;;;;;1.27;1.27;;;;;;;6.01;71.61;102662.91;5049859;28;20032;-79
2024/03/07 03:21:03;;;;;;;0.10;0.10;;;;;;;5.99;71.32;102657.59;5054479;28;20029;-79
2024/03/07 03:23:30;;;;;;;6.13;3.60;;;;;;;5.95;71.25;102663.59;5057486;28;20021;-81
2024/03/07 03:25:56;;;;;;;0.10;0.10;;;;;;;5.92;71.02;102656.50;5055168;28;20049;-79
2024/03/07 03:28:23;;;;;;;0.10;0.10;;;;;;;5.90;70.78;102657.31;5061383;28;20036;-79
2024/03/07 03:30:51;;;;;;;0.10;0.10;;;;;;;5.84;71.13;102655.38;5057958;28;20603;-79
2024/03/07 03:33:17;;;;;;;0.13;0.13;;;;;;;5.81;71.00;102661.44;5055382;28;20519;-79
2024/03/07 03:35:44;;;;;;;0.30;0.30;;;;;;;5.79;71.17;102657.88;5054154;28;20033;-80
2024/03/07 03:38:10;;;;;;;0.35;0.35;;;;;;;5.83;71.52;102656.22;5048110;28;20144;-80
2024/03/07 03:40:37;;;;;;;0.40;0.40;;;;;;;5.90;71.43;102652.06;5054788;28;20037;-78
2024/03/07 03:43:03;;;;;;;0.47;0.47;;;;;;;5.97;71.25;102648.75;5054824;28;20059;-79
2024/03/07 03:45:30;;;;;;;5.20;1.77;;;;;;;6.06;71.25;102653.41;5055086;28;20040;-80
2024/03/07 03:47:56;;;;;;;0.10;0.10;;;;;;;6.14;71.73;102654.50;5054948;28;20037;-79
2024/03/07 03:50:23;;;;;;;0.20;0.20;;;;;;;6.22;71.60;102646.81;5056187;28;20029;-79
2024/03/07 03:52:49;;;;;;;1.70;1.60;;;;;;;6.29;71.53;102636.50;5056512;28;20025;-78
2024/03/07 03:55:16;;;;;;;0.10;0.10;;;;;;;6.39;71.44;102642.00;5058348;28;20032;-78
2024/03/07 03:57:43;;;;;;;0.10;0.10;;;;;;;6.47;71.76;102636.09;5056618;28;20033;-79
2024/03/07 04:00:14;;;;;;;0.20;0.20;;;;;;;6.56;71.84;102637.19;5054878;28;20052;-78
2024/03/07 04:02:43;;;;;;;0.20;0.20;;;;;;;6.66;72.30;102631.28;5054598;28;20389;-79
2024/03/07 04:05:11;;;;;;;1.17;0.70;;;;;;;6.74;71.49;102627.13;5054962;28;20028;-80
2024/03/07 04:07:38;;;;;;;0.10;0.10;;;;;;;6.83;71.60;102628.16;5055021;28;20029;-78
2024/03/07 04:10:08;;;;;;;0.30;0.30;;;;;;;6.88;72.08;102629.16;5055160;28;20415;-79
2024/03/07 04:12:37;;;;;;;0.35;0.35;;;;;;;6.96;71.94;102624.97;5054859;28;20029;-78
2024/03/07 04:15:04;;;;;;;0.10;0.10;;;;;;;7.04;71.59;102623.44;5061119;28;20033;-77
2024/03/07 04:17:31;;;;;;;0.55;0.55;;;;;;;7.09;71.56;102621.78;5061066;28;20123;-79
2024/03/07 04:19:58;;;;;;;0.32;0.32;;;;;;;7.15;71.56;102615.75;5057722;28;20061;-78
2024/03/07 04:22:25;;;;;;;0.10;0.10;;;;;;;7.18;71.92;102620.19;5054897;28;20029;-79
2024/03/07 04:24:53;;;;;;;0.20;0.20;;;;;;;7.19;71.84;102616.72;5055455;28;20496;-79
2024/03/07 04:27:21;;;;;;;0.10;0.10;;;;;;;7.16;71.83;102621.94;5055334;28;20029;-79
2024/03/07 04:29:47;;;;;;;0.82;0.82;;;;;;;7.12;71.79;102621.84;5062476;28;20530;-79
2024/03/07 04:32:14;;;;;;;0.70;0.70;;;;;;;7.06;71.38;102621.69;5062417;28;20509;-79
2024/03/07 04:34:40;;;;;;;1.17;1.08;;;;;;;7.00;71.53;102615.41;5064746;28;20106;-79
2024/03/07 04:37:07;;;;;;;0.10;0.10;;;;;;;6.95;71.31;102617.94;5062845;28;20052;-80
2024/03/07 04:39:33;;;;;;;0.10;0.10;;;;;;;6.90;71.43;102614.28;5062723;28;20032;-80
2024/03/07 04:44:37;;;;;;;0.20;0.20;;;;;;;6.81;71.04;102614.97;5122900;27;20770;-78
2024/03/07 04:47:04;;;;;;;0.10;0.10;;;;;;;6.75;71.27;102613.09;5114432;28;20063;-78
2024/03/07 04:49:32;;;;;;;0.22;0.22;;;;;;;6.71;71.37;102613.84;5123307;28;20027;-77
2024/03/07 04:52:01;;;;;;;0.30;0.30;;;;;;;6.68;71.38;102612.88;5122294;28;20032;-79
2024/03/07 04:54:29;;;;;;;0.10;0.10;;;;;;;6.63;70.83;102615.44;5115449;28;20050;-80
2024/03/07 04:56:55;;;;;;;1.45;1.38;;;;;;;6.59;70.62;102621.44;5112407;28;20455;-79
2024/03/07 04:59:23;;;;;;;0.20;0.20;;;;;;;6.53;70.53;102624.84;5112788;28;20020;-80
2024/03/07 05:01:50;;;;;;;0.22;0.22;;;;;;;6.49;70.90;102628.22;5109266;28;20024;-80
2024/03/07 05:04:17;;;;;;;0.10;0.10;;;;;;;6.44;71.02;102628.13;5099698;28;20035;-79
2024/03/07 05:06:47;;;;;;;0.10;0.10;;;;;;;6.40;70.56;102628.00;5105975;28;20024;-79
2024/03/07 05:09:22;;;;;;;0.10;0.10;;;;;;;6.36;70.44;102631.41;5111594;28;20505;-80
2024/03/07 05:11:51;;;;;;;0.47;0.47;;;;;;;6.30;70.97;102627.72;5109973;28;20028;-80
2024/03/07 05:14:18;;;;;;;0.13;0.13;;;;;;;6.27;70.59;102637.31;5101393;28;20024;-80
2024/03/07 05:16:44;;;;;;;1.38;1.30;;;;;;;6.22;70.47;102629.28;5110877;28;20382;-79
2024/03/07 05:19:11;;;;;;;0.10;0.10;;;;;;;6.19;70.44;102631.81;5108423;28;20103;-79
2024/03/07 05:21:37;;;;;;;0.10;0.10;;;;;;;6.14;70.62;102631.72;5107111;28;20039;-79
2024/03/07 05:24:05;;;;;;;0.20;0.20;;;;;;;6.12;70.41;102636.03;5115220;28;20043;-80
2024/03/07 05:26:37;;;;;;;3.20;1.23;;;;;;;6.08;70.66;102635.91;5106974;28;20445;-79
2024/03/07 05:29:07;;;;;;;0.47;0.47;;;;;;;6.05;71.00;102626.19;5097419;28;20043;-78
2024/03/07 05:31:34;;;;;;;0.38;0.38;;;;;;;6.01;70.89;102633.94;5107293;28;20507;-80
2024/03/07 05:34:08;;;;;;;0.47;0.47;;;;;;;5.98;70.41;102630.41;5105074;28;20052;-78
2024/03/07 05:36:35;;;;;;;0.63;0.63;;;;;;;5.96;70.58;102626.78;5095031;28;20399;-78
2024/03/07 05:39:08;;;;;;;2.78;1.52;;;;;;;5.95;70.56;102630.28;5100375;28;20090;-78
2024/03/07 05:41:34;;;;;;;0.98;0.98;;;;;;;5.93;70.56;102631.06;5104221;28;20119;-78
2024/03/07 05:44:01;;;;;;;0.10;0.10;;;;;;;5.89;70.50;102629.22;5110009;28;20031;-77
2024/03/07 05:46:27;;;;;;;1.67;1.10;;;;;;;5.86;70.90;102623.84;5109771;28;20032;-77
2024/03/07 05:48:56;;;;;;;0.30;0.30;;;;;;;5.83;70.58;102628.19;5106109;28;20028;-79
2024/03/07 05:51:23;;;;;;;0.95;0.95;;;;;;;5.82;70.93;102628.16;5101573;28;20103;-77
2024/03/07 05:53:50;;;;;;;0.32;0.32;;;;;;;5.80;70.96;102617.56;5103549;28;20526;-78
2024/03/07 05:56:16;;;;;;;0.20;0.20;;;;;;;5.78;70.89;102616.66;5094147;28;20410;-79
2024/03/07 05:58:43;;;;;;;0.13;0.13;;;;;;;5.77;71.05;102620.13;5095100;28;20032;-76
2024/03/07 06:01:09;;;;;;;1.45;1.15;;;;;;;5.75;70.99;102621.81;5094099;28;20031;-77
2024/03/07 06:03:35;;;;;;;0.10;0.10;;;;;;;5.73;70.87;102618.28;5094220;28;20487;-78
2024/03/07 06:06:02;;;;;;;0.10;0.10;;;;;;;5.72;70.72;102620.84;5094402;28;20111;-79
2024/03/07 06:08:28;;;;;;;0.68;0.68;;;;;;;5.69;70.78;102620.75;5092619;28;20028;-78
2024/03/07 06:10:54;;;;;;;0.65;0.60;;;;;;;5.67;71.01;102631.25;5095201;28;20096;-77
2024/03/07 06:13:20;;;;;;;0.40;0.40;;;;;;;5.65;71.03;102630.31;5099074;28;20024;-78
2024/03/07 06:15:47;;;;;;;0.13;0.13;;;;;;;5.64;70.86;102636.41;5093328;28;20066;-78
2024/03/07 06:18:14;;;;;;;9.13;2.05;;;;;;;5.61;70.73;102629.31;5087204;28;20054;-79
2024/03/07 06:20:42;;;;;;;3.72;0.90;;;;;;;5.60;70.91;102632.78;5086730;28;20039;-79
2024/03/07 06:23:11;;;;;;;0.10;0.10;;;;;;;5.60;70.82;102627.53;5083335;28;20052;-80
2024/03/07 06:25:47;;;;;;;0.20;0.20;;;;;;;5.59;70.98;102623.09;5092964;28;20100;-78
2024/03/07 06:28:14;;;;;;;0.82;0.82;;;;;;;5.60;70.94;102626.66;5096238;28;20111;-78
2024/03/07 06:30:43;;;;;;;0.10;0.10;;;;;;;5.61;71.13;102623.19;5099049;28;20039;-78
2024/03/07 06:33:10;;;;;;;0.40;0.40;;;;;;;5.61;71.08;102623.19;5105247;28;20024;-77
2024/03/07 06:35:37;;;;;;;0.20;0.20;;;;;;;5.60;70.89;102622.28;5099440;28;20058;-78
2024/03/07 06:38:05;;;;;;;1.42;1.33;;;;;;;5.60;71.11;102621.41;5093475;28;20055;-80
2024/03/07 06:40:32;;;;;;;0.20;0.20;;;;;;;5.60;71.08;102616.13;5091552;28;20394;-77
2024/03/07 06:42:59;;;;;;;0.85;0.85;;;;;;;5.61;71.13;102620.56;5086059;28;20817;-79
2024/03/07 06:45:26;;;;;;;1.25;0.77;;;;;;;5.61;71.12;102623.19;5098883;28;20046;-77
2024/03/07 06:47:52;;;;;;;0.15;0.15;;;;;;;5.60;71.28;102616.13;5089177;28;20449;-79
2024/03/07 06:50:20;;;;;;;0.52;0.52;;;;;;;5.60;71.07;102613.50;5100200;28;20096;-78
2024/03/07 06:52:47;;;;;;;0.45;0.45;;;;;;;5.61;71.13;102613.53;5091025;28;20017;-80
2024/03/07 06:55:16;;;;;;;1.00;1.00;;;;;;;5.66;71.09;102616.31;5100050;28;20039;-78
2024/03/07 06:57:43;;;;;;;0.22;0.22;;;;;;;5.64;71.32;102615.38;5097717;28;20527;-79
2024/03/07 07:00:11;;;;;;;0.20;0.20;;;;;;;5.66;70.97;102611.06;5098293;28;20084;-77
2024/03/07 07:02:41;;;;;;;0.40;0.40;;;;;;;5.69;71.18;102611.13;5095781;28;20027;-79
2024/03/07 07:05:11;;;;;;;0.75;0.75;;;;;;;5.69;71.33;102611.13;5094627;28;20055;-80
2024/03/07 07:07:42;;;;;;;0.10;0.10;;;;;;;5.73;71.11;102610.38;5084646;28;20066;-79
2024/03/07 07:10:15;;;;;;;0.63;0.63;;;;;;;5.73;71.22;102613.00;5086652;28;20048;-78
2024/03/07 07:12:45;;;;;;;1.55;1.55;;;;;;;5.75;71.11;102618.31;5087424;28;20451;-78
2024/03/07 07:15:13;;;;;;;0.10;0.10;;;;;;;5.77;70.88;102614.88;5087486;28;20048;-80
2024/03/07 07:17:39;;;;;;;1.38;1.33;;;;;;;5.78;71.14;102610.50;5084208;28;20111;-80
2024/03/07 07:20:10;;;;;;;0.10;0.10;;;;;;;5.79;71.17;102617.53;5088467;28;20111;-80
2024/03/07 07:22:38;;;;;;;0.10;0.10;;;;;;;5.83;71.37;102615.06;5087070;28;20088;-80
2024/03/07 07:25:05;;;;;;;0.85;0.85;;;;;;;5.89;71.20;102621.31;5085475;28;20036;-79
2024/03/07 07:27:34;;;;;;;4.18;1.65;;;;;;;5.96;71.45;102620.66;5084876;28;20038;-81
2024/03/07 07:30:00;;;;;;;1.02;1.02;;;;;;;5.99;71.40;102620.75;5080869;28;20028;-78
2024/03/07 07:32:27;;;;;;;9.00;2.08;;;;;;;6.02;71.78;102620.84;5093879;28;20099;-78
2024/03/07 07:34:55;;;;;;;0.22;0.22;;;;;;;6.09;71.24;102616.66;5093675;28;20031;-79
2024/03/07 07:37:21;;;;;;;3.60;1.15;;;;;;;6.07;71.53;102616.63;5094299;28;20081;-80
2024/03/07 07:39:47;;;;;;;0.90;0.90;;;;;;;6.18;71.53;102631.78;5102876;28;20028;-80
2024/03/07 07:42:14;;;;;;;2.25;1.45;;;;;;;6.23;71.73;102615.28;5107862;28;20058;-79
2024/03/07 07:44:40;;;;;;;0.15;0.15;;;;;;;6.28;71.78;102623.28;5086972;28;20020;-79
2024/03/07 07:47:07;;;;;;;0.10;0.10;;;;;;;6.34;72.12;102618.19;5094409;28;20384;-78
2024/03/07 07:49:33;;;;;;;1.00;1.00;;;;;;;6.40;71.60;102623.59;5094885;28;20074;-79
2024/03/07 07:52:00;;;;;;;0.28;0.28;;;;;;;6.46;72.07;102612.34;5093457;28;20028;-78
2024/03/07 07:54:26;;;;;;;0.90;0.90;;;;;;;6.50;72.49;102610.69;5089098;28;20465;-77
2024/03/07 07:56:52;;;;;;;0.65;0.65;;;;;;;6.57;72.27;102600.34;5087801;28;20090;-79
2024/03/07 07:59:19;;;;;;;0.10;0.10;;;;;;;6.58;72.59;102601.22;5095304;28;20080;-79
2024/03/07 08:01:45;;;;;;;0.70;0.70;;;;;;;6.66;72.33;102602.31;5095260;28;20027;-80
2024/03/07 08:04:11;;;;;;;0.22;0.22;;;;;;;6.70;72.05;102601.53;5094017;28;20017;-81
2024/03/07 08:06:37;;;;;;;0.70;0.70;;;;;;;6.73;71.84;102601.63;5087913;28;20033;-81
2024/03/07 08:09:07;;;;;;;0.85;0.85;;;;;;;6.80;72.19;102598.28;5095652;28;20024;-81
2024/03/07 08:11:33;;;;;;;2.88;2.15;;;;;;;6.88;71.65;102601.09;5095134;28;20087;-79
2024/03/07 08:13:59;;;;;;;1.15;1.10;;;;;;;6.95;72.32;102594.22;5095769;28;20020;-79
2024/03/07 08:16:26;;;;;;;0.22;0.22;;;;;;;7.01;71.76;102599.63;5095803;28;20040;-80
2024/03/07 08:18:52;;;;;;;0.85;0.85;;;;;;;7.05;71.70;102600.59;5095325;28;20020;-80
2024/03/07 08:21:18;;;;;;;0.10;0.10;;;;;;;7.09;72.45;102597.16;5093064;28;20040;-80
2024/03/07 08:23:46;;;;;;;3.33;2.78;;;;;;;7.15;72.42;102599.94;5093378;28;20020;-80
2024/03/07 08:26:12;;;;;;;0.40;0.40;;;;;;;7.24;72.54;102599.25;5094890;28;20119;-81
2024/03/07 08:28:38;;;;;;;0.30;0.30;;;;;;;7.30;72.26;102599.38;5093635;28;20040;-80
2024/03/07 08:31:05;;;;;;;1.35;1.30;;;;;;;7.36;72.03;102594.25;5092331;28;20028;-79
2024/03/07 08:33:33;;;;;;;10.43;2.95;;;;;;;7.43;72.18;102596.16;5094042;28;20256;-80
2024/03/07 08:35:59;;;;;;;0.20;0.20;;;;;;;7.51;72.19;102600.72;5092418;28;20364;-80
2024/03/07 08:38:25;;;;;;;0.10;0.10;;;;;;;7.56;72.35;102602.59;5093051;28;20043;-79
2024/03/07 08:40:51;;;;;;;1.92;1.85;;;;;;;7.66;71.46;102601.03;5093222;28;20023;-79
2024/03/07 08:43:18;;;;;;;0.32;0.32;;;;;;;7.75;72.25;102592.41;5093447;28;20666;-79
2024/03/07 08:45:44;;;;;;;1.05;0.95;;;;;;;7.81;71.46;102586.38;5082455;28;20469;-79
2024/03/07 08:48:10;;;;;;;0.77;0.47;;;;;;;7.86;71.60;102589.97;5089285;28;20029;-78
2024/03/07 08:50:37;;;;;;;0.32;0.32;;;;;;;7.98;71.28;102584.94;5084570;28;20056;-77
2024/03/07 08:53:04;;;;;;;0.90;0.90;;;;;;;8.05;71.07;102578.91;5093682;28;20070;-77
2024/03/07 08:55:30;;;;;;;0.85;0.85;;;;;;;8.13;71.37;102583.44;5081252;28;20039;-77
2024/03/07 08:57:57;;;;;;;0.30;0.30;;;;;;;8.20;70.44;102580.03;5077159;28;20043;-77
2024/03/07 09:00:23;;;;;;;0.20;0.20;;;;;;;8.30;70.35;102571.44;5077529;28;20023;-79
2024/03/07 09:02:52;;;;;;;2.60;2.50;;;;;;;8.41;70.31;102574.25;5089642;28;20020;-77
2024/03/07 09:05:19;;;;;;;0.60;0.60;;;;;;;8.51;70.53;102573.59;5088070;28;20449;-77
2024/03/07 09:07:46;;;;;;;1.33;0.73;;;;;;;8.63;70.05;102561.44;5092010;28;20035;-81
2024/03/07 09:10:14;;;;;;;0.40;0.40;;;;;;;8.68;69.77;102572.97;5092321;28;20020;-79
2024/03/07 09:12:41;;;;;;;1.52;1.42;;;;;;;8.73;68.89;102561.59;5094069;28;20424;-80
2024/03/07 09:15:10;;;;;;;0.40;0.40;;;;;;;8.83;68.88;102562.59;5097068;28;20028;-81
2024/03/07 09:17:36;;;;;;;0.10;0.10;;;;;;;8.97;69.33;102556.63;5093674;28;20036;-77
2024/03/07 09:20:05;;;;;;;0.52;0.52;;;;;;;9.11;69.04;102559.47;5091401;28;20619;-77
2024/03/07 09:22:32;;;;;;;0.25;0.25;;;;;;;9.23;68.78;102562.28;5092034;28;20086;-77
2024/03/07 09:24:59;;;;;;;1.23;1.13;;;;;;;9.32;68.43;102561.50;5100190;28;20035;-76
2024/03/07 09:27:25;;;;;;;0.50;0.45;;;;;;;9.34;67.35;102555.38;5095878;28;20039;-76
2024/03/07 09:29:51;;;;;;;0.75;0.75;;;;;;;9.49;67.41;102559.09;5094308;28;20092;-78
2024/03/07 09:32:18;;;;;;;2.13;1.23;;;;;;;9.62;67.43;102552.16;5087838;28;20189;-76
2024/03/07 09:34:44;;;;;;;0.75;0.75;;;;;;;9.71;66.78;102554.94;5089724;28;20044;-78
2024/03/07 09:37:10;;;;;;;0.10;0.10;;;;;;;9.85;66.13;102552.44;5086571;28;20029;-79
2024/03/07 09:39:37;;;;;;;0.60;0.60;;;;;;;9.98;66.01;102549.03;5086853;28;20097;-78
2024/03/07 09:42:09;;;;;;;1.00;0.98;;;;;;;10.07;65.32;102536.75;5086709;28;20028;-81
2024/03/07 09:44:39;;;;;;;0.20;0.20;;;;;;;10.18;64.87;102540.38;5086638;28;20028;-78
2024/03/07 09:47:05;;;;;;;0.30;0.30;;;;;;;10.25;62.90;102542.22;5083845;28;20561;-78
2024/03/07 09:49:35;;;;;;;0.73;0.73;;;;;;;10.41;64.43;102545.03;5087400;28;20043;-76
2024/03/07 09:52:08;;;;;;;6.88;2.47;;;;;;;10.44;61.26;102538.00;5092920;28;20039;-77
2024/03/07 09:54:35;;;;;;;9.65;3.47;;;;;;;10.58;61.71;102538.09;5094831;28;20032;-77
2024/03/07 09:57:07;;;;;;;0.10;0.10;;;;;;;10.64;60.43;102537.25;5100975;28;20039;-75
2024/03/07 09:59:38;;;;;;;0.55;0.55;;;;;;;10.66;59.87;102535.50;5097946;28;20115;-76
2024/03/07 10:02:07;;;;;;;0.10;0.10;;;;;;;10.75;59.86;102537.31;5087344;28;20519;-77
2024/03/07 10:07:18;;;;;;;0.20;0.20;;;;;;;10.85;58.13;102533.84;5112217;27;20894;-75
2024/03/07 10:09:45;;;;;;;1.27;1.27;;;;;;;10.93;59.69;102529.50;5097026;28;20028;-77
2024/03/07 10:12:12;;;;;;;0.73;0.65;;;;;;;11.06;60.83;102526.91;5091920;28;20020;-77
2024/03/07 10:14:49;;;;;;;0.85;0.85;;;;;;;11.14;61.28;102526.06;5094394;28;20487;-77
2024/03/07 10:17:15;;;;;;;0.43;0.43;;;;;;;11.24;59.13;102528.75;5091356;28;20028;-78
2024/03/07 10:19:42;;;;;;;0.65;0.65;;;;;;;11.35;58.18;102515.53;5098650;28;20031;-78
2024/03/07 10:22:08;;;;;;;0.10;0.10;;;;;;;11.48;58.98;102520.00;5094601;28;20060;-79
2024/03/07 10:24:34;;;;;;;1.85;0.85;;;;;;;11.58;58.71;102508.50;5090246;28;20029;-80
2024/03/07 10:27:01;;;;;;;3.20;1.65;;;;;;;11.62;56.13;102507.63;5086557;28;20033;-80
2024/03/07 10:29:28;;;;;;;0.45;0.45;;;;;;;11.76;58.71;102513.00;5085305;28;20101;-80
2024/03/07 10:31:54;;;;;;;0.70;0.70;;;;;;;11.75;56.96;102510.31;5097073;28;20032;-80
2024/03/07 10:34:23;;;;;;;1.27;0.40;;;;;;;11.77;55.54;102511.22;5093281;28;20028;-78
2024/03/07 10:36:51;;;;;;;0.93;0.93;;;;;;;11.89;56.91;102505.91;5094864;28;20567;-78
2024/03/07 10:39:21;;;;;;;0.35;0.35;;;;;;;11.95;56.70;102499.72;5094654;28;20042;-79
2024/03/07 10:41:49;;;;;;;0.65;0.65;;;;;;;11.98;55.08;102503.28;5095121;28;20024;-80
2024/03/07 10:44:24;;;;;;;0.10;0.10;;;;;;;12.04;54.69;102504.22;5091981;28;20052;-79
2024/03/07 10:46:53;;;;;;;0.30;0.30;;;;;;;12.12;56.31;102502.41;5090654;28;20016;-80
2024/03/07 10:49:24;;;;;;;0.70;0.68;;;;;;;12.14;54.58;102495.34;5094221;28;20687;-78
2024/03/07 11:00:00;;;;;;;0.47;0.47;;;;;;;12.44;55.10;102485.59;5091305;28;20506;-78
2024/03/07 11:02:45;;;;;;;6.63;1.17;;;;;;;12.50;52.41;102477.59;5086355;28;20036;-79
2024/03/07 11:05:15;;;;;;;12.35;1.23;;;;;;;12.51;53.27;102479.38;5071153;28;20040;-79
2024/03/07 11:07:42;;;;;;;0.77;0.77;;;;;;;12.57;52.92;102479.34;5069700;28;20518;-79
2024/03/07 11:10:11;;;;;;;0.40;0.40;;;;;;;12.67;52.05;102487.31;5069925;28;20032;-78
2024/03/07 11:12:41;;;;;;;0.20;0.20;;;;;;;12.78;51.36;102489.06;5069494;28;20063;-78
2024/03/07 11:15:14;;;;;;;0.22;0.22;;;;;;;12.90;50.98;102474.81;5069372;28;20539;-80
2024/03/07 11:17:44;;;;;;;0.10;0.10;;;;;;;13.03;51.28;102480.09;5067202;28;20051;-79
2024/03/07 11:20:26;;;;;;;0.75;0.75;;;;;;;13.14;50.01;102470.28;5064208;28;20048;-78
2024/03/07 11:22:55;;;;;;;0.22;0.22;;;;;;;13.11;50.37;102471.19;5071200;28;20033;-81
2024/03/07 11:25:22;;;;;;;0.10;0.10;;;;;;;13.21;50.55;102471.16;5071273;28;20047;-80
2024/03/07 11:27:59;;;;;;;1.02;1.02;;;;;;;13.29;50.09;102468.44;5074251;28;20027;-79
2024/03/07 11:30:26;;;;;;;0.45;0.45;;;;;;;13.30;49.45;102462.25;5068962;28;20041;-80
2024/03/07 11:32:54;;;;;;;0.13;0.13;;;;;;;13.31;49.24;102458.66;5065024;28;20033;-79
2024/03/07 11:35:32;;;;;;;0.40;0.40;;;;;;;13.34;49.15;102446.22;5069307;28;20048;-81
2024/03/07 11:37:59;;;;;;;0.20;0.20;;;;;;;13.46;48.50;102439.97;5062710;28;20033;-79
2024/03/07 11:43:05;;;;;;;0.40;0.40;;;;;;;13.40;48.10;102429.38;5077493;27;1951252;-80
2024/03/07 11:45:38;;;;;;;0.20;0.20;;;;;;;13.39;47.44;102428.47;5110348;28;20036;-82
2024/03/07 11:48:09;;;;;;;;;;;;;;;13.69;48.58;102420.28;5104245;28;20036;-82